createdAt,value
2022-08-25T00:01:18.157Z,23.00
2022-08-25T00:03:51.486Z,23.00
2022-08-25T00:16:43.507Z,22.70
2022-08-25T05:19:44.250Z,20.70
2022-08-25T05:22:16.009Z,21.00
2022-08-25T05:24:59.878Z,20.90
2022-08-25T05:27:54.098Z,20.70
2022-08-25T05:30:25.962Z,20.70
2022-08-25T05:32:57.725Z,20.80
2022-08-25T05:35:29.558Z,20.80
2022-08-25T05:38:01.589Z,20.80
2022-08-25T05:40:33.636Z,20.80
2022-08-25T05:43:06.824Z,20.90
2022-08-25T05:45:39.293Z,20.90
2022-08-25T05:48:11.126Z,21.00
2022-08-25T05:53:14.197Z,21.00
2022-08-25T05:55:46.013Z,21.00
2022-08-25T05:58:17.945Z,21.10
2022-08-25T06:00:49.997Z,21.10
2022-08-25T06:03:21.913Z,21.10
2022-08-25T06:05:53.734Z,21.20
2022-08-25T06:08:31.894Z,21.20
2022-08-25T06:11:03.685Z,21.30
2022-08-25T06:13:35.484Z,21.30
2022-08-25T06:16:07.698Z,21.30
2022-08-25T06:18:39.543Z,21.30
2022-08-25T06:21:13.278Z,21.30
2022-08-25T06:23:46.472Z,21.40
2022-08-25T06:26:21.214Z,21.40
2022-08-25T06:30:46.088Z,21.40
2022-08-25T06:33:17.857Z,21.50
2022-08-25T06:35:53.120Z,21.50
2022-08-25T06:38:25.750Z,21.60
2022-08-25T06:40:57.993Z,21.60
2022-08-25T06:43:29.782Z,21.60
2022-08-25T06:46:10.224Z,21.70
2022-08-25T06:48:42.571Z,21.70
2022-08-25T06:51:16.539Z,21.70
2022-08-25T06:53:49.467Z,21.80
2022-08-25T06:56:21.953Z,21.80
2022-08-25T06:58:55.880Z,21.90
2022-08-25T07:01:29.094Z,21.90
2022-08-25T07:04:10.344Z,21.90
2022-08-25T07:06:45.083Z,22.00
2022-08-25T07:09:17.493Z,22.10
2022-08-25T07:11:49.273Z,22.10
2022-08-25T07:14:22.120Z,22.10
2022-08-25T07:16:55.290Z,22.20
2022-08-25T07:19:27.091Z,22.20
2022-08-25T07:21:58.850Z,22.30
2022-08-25T07:24:30.738Z,22.30
2022-08-25T07:27:02.660Z,22.40
2022-08-25T07:29:38.758Z,22.40
2022-08-25T07:32:15.797Z,22.50
2022-08-25T07:35:06.282Z,22.50
2022-08-25T07:37:48.092Z,22.60
2022-08-25T07:40:24.267Z,22.70
2022-08-25T07:42:58.727Z,22.70
2022-08-25T07:45:34.561Z,22.80
2022-08-25T07:48:10.566Z,22.90
2022-08-25T07:50:45.241Z,23.00
2022-08-25T07:53:17.906Z,23.00
2022-08-25T07:55:50.088Z,23.10
2022-08-25T07:58:25.777Z,23.20
2022-08-25T08:00:57.593Z,23.30
2022-08-25T08:03:45.182Z,23.30
2022-08-25T08:06:24.115Z,23.40
2022-08-25T08:08:57.757Z,23.50
2022-08-25T08:11:37.149Z,23.60
2022-08-25T08:14:08.972Z,23.60
2022-08-25T08:16:40.824Z,23.70
2022-08-25T08:19:15.273Z,23.80
2022-08-25T08:21:47.018Z,23.80
2022-08-25T08:24:40.761Z,23.90
2022-08-25T08:27:12.250Z,23.90
2022-08-25T08:29:44.306Z,24.10
2022-08-25T08:32:17.955Z,24.10
2022-08-25T08:34:52.276Z,24.20
2022-08-25T08:37:24.598Z,24.30
2022-08-25T08:39:56.700Z,24.40
2022-08-25T08:42:46.989Z,24.50
2022-08-25T08:45:43.874Z,24.50
2022-08-25T08:48:40.675Z,24.70
2022-08-25T08:51:23.179Z,24.70
2022-08-25T08:53:57.913Z,24.80
2022-08-25T08:56:31.867Z,24.90
2022-08-25T08:59:09.483Z,24.90
2022-08-25T09:01:45.861Z,25.00
2022-08-25T09:04:24.290Z,25.10
2022-08-25T09:06:59.878Z,25.20
2022-08-25T09:09:35.814Z,25.20
2022-08-25T09:12:13.608Z,25.30
2022-08-25T09:15:02.056Z,25.40
2022-08-25T09:17:59.695Z,25.50
2022-08-25T09:20:57.708Z,25.60
2022-08-25T09:23:43.060Z,25.70
2022-08-25T09:26:27.338Z,25.80
2022-08-25T09:29:06.135Z,25.90
2022-08-25T09:31:39.864Z,25.90
2022-08-25T09:34:17.203Z,26.00
2022-08-25T09:36:52.857Z,26.10
2022-08-25T09:39:26.703Z,26.20
2022-08-25T09:42:00.337Z,26.30
2022-08-25T09:44:34.635Z,26.40
2022-08-25T09:47:15.978Z,26.40
2022-08-25T09:49:56.206Z,26.50
2022-08-25T09:52:34.715Z,26.60
2022-08-25T09:55:39.299Z,26.80
2022-08-25T09:58:19.578Z,26.90
2022-08-25T10:01:04.350Z,27.00
2022-08-25T10:03:36.931Z,27.10
2022-08-25T10:06:15.038Z,27.20
2022-08-25T10:08:56.077Z,27.20
2022-08-25T10:11:42.287Z,27.30
2022-08-25T10:14:20.899Z,27.30
2022-08-25T10:16:54.581Z,27.40
2022-08-25T10:19:28.944Z,27.40
2022-08-25T10:22:08.299Z,27.50
2022-08-25T10:24:43.862Z,27.60
2022-08-25T10:27:28.631Z,27.70
2022-08-25T10:30:11.011Z,27.80
2022-08-25T10:33:01.869Z,27.90
2022-08-25T10:35:47.326Z,28.00
2022-08-25T10:38:36.330Z,28.20
2022-08-25T10:41:26.783Z,28.30
2022-08-25T10:44:29.213Z,28.40
2022-08-25T10:47:23.938Z,28.50
2022-08-25T10:50:00.252Z,28.60
2022-08-25T10:52:46.589Z,28.80
2022-08-25T10:55:25.078Z,28.80
2022-08-25T10:58:04.627Z,28.90
2022-08-25T11:00:48.663Z,29.00
2022-08-25T11:03:35.549Z,29.10
2022-08-25T11:06:12.595Z,29.10
2022-08-25T11:08:50.417Z,29.20
2022-08-25T11:11:28.064Z,29.30
2022-08-25T11:14:06.377Z,29.30
2022-08-25T11:16:51.155Z,29.40
2022-08-25T11:19:30.934Z,29.50
2022-08-25T11:22:13.529Z,29.50
2022-08-25T11:25:05.575Z,29.60
2022-08-25T11:27:41.568Z,29.70
2022-08-25T11:30:15.966Z,29.80
2022-08-25T11:32:52.056Z,29.90
2022-08-25T11:35:28.955Z,29.90
2022-08-25T11:38:17.251Z,30.00
2022-08-25T11:40:57.725Z,30.00
2022-08-25T11:43:43.145Z,30.20
2022-08-25T11:46:27.815Z,30.30
2022-08-25T11:49:16.652Z,30.50
2022-08-25T11:51:50.627Z,30.60
2022-08-25T11:54:27.361Z,30.80
2022-08-25T11:57:02.215Z,31.20
2022-08-25T12:00:07.286Z,31.70
2022-08-25T12:02:42.717Z,32.10
2022-08-25T12:06:13.152Z,32.20
2022-08-25T12:08:51.305Z,32.30
2022-08-25T12:11:45.836Z,32.40
2022-08-25T12:14:42.284Z,32.80
2022-08-25T12:17:24.305Z,33.60
2022-08-25T12:19:58.933Z,34.40
2022-08-25T12:22:57.441Z,34.80
2022-08-25T12:25:37.990Z,35.10
2022-08-25T12:28:35.071Z,35.20
2022-08-25T12:31:17.728Z,35.60
2022-08-25T12:34:06.230Z,35.80
2022-08-25T12:36:38.692Z,36.00
2022-08-25T12:39:24.261Z,36.10
2022-08-25T12:44:41.866Z,35.80
2022-08-25T12:47:31.811Z,35.60
2022-08-25T12:50:27.281Z,35.40
2022-08-25T12:53:12.150Z,35.70
2022-08-25T12:55:50.483Z,36.40
2022-08-25T12:58:31.195Z,37.10
2022-08-25T13:01:35.385Z,37.80
2022-08-25T13:04:39.099Z,38.60
2022-08-25T13:07:26.196Z,39.30
2022-08-25T13:10:20.438Z,39.90
2022-08-25T13:13:00.493Z,40.50
2022-08-25T13:15:36.036Z,41.10
2022-08-25T13:18:18.002Z,41.50
2022-08-25T13:20:54.855Z,42.00
2022-08-25T13:23:29.197Z,42.10
2022-08-25T13:26:01.939Z,42.30
2022-08-25T13:28:37.080Z,42.60
2022-08-25T13:31:17.567Z,42.70
2022-08-25T13:33:52.179Z,43.00
2022-08-25T13:36:53.992Z,43.20
2022-08-25T13:39:54.842Z,43.30
2022-08-25T13:42:19.346Z,43.40
2022-08-25T13:44:54.487Z,43.70
2022-08-25T13:47:43.705Z,43.80
2022-08-25T13:50:21.673Z,44.00
2022-08-25T13:52:56.861Z,44.00
2022-08-25T13:55:50.704Z,44.20
2022-08-25T13:58:39.321Z,44.40
2022-08-25T14:01:47.695Z,44.50
2022-08-25T14:04:25.005Z,44.60
2022-08-25T14:07:08.319Z,44.80
2022-08-25T14:09:45.294Z,44.80
2022-08-25T14:15:06.947Z,43.90
2022-08-25T14:17:41.150Z,43.30
2022-08-25T14:20:25.591Z,42.60
2022-08-25T14:22:59.338Z,41.90
2022-08-25T14:25:32.177Z,41.40
2022-08-25T14:28:06.684Z,40.80
2022-08-25T14:30:43.534Z,40.60
2022-08-25T14:33:20.829Z,40.50
2022-08-25T14:35:54.391Z,40.50
2022-08-25T14:38:26.904Z,40.30
2022-08-25T14:40:59.317Z,40.30
2022-08-25T14:43:32.041Z,40.30
2022-08-25T14:46:08.503Z,40.50
2022-08-25T14:48:50.612Z,40.70
2022-08-25T14:51:23.107Z,40.80
2022-08-25T14:54:01.779Z,40.90
2022-08-25T14:56:33.975Z,40.90
2022-08-25T14:59:06.196Z,40.80
2022-08-25T15:01:39.814Z,40.80
2022-08-25T15:04:15.690Z,40.80
2022-08-25T15:06:50.392Z,40.70
2022-08-25T15:09:23.482Z,40.60
2022-08-25T15:11:56.221Z,40.70
2022-08-25T15:14:28.909Z,40.70
2022-08-25T15:17:04.844Z,40.70
2022-08-25T15:19:40.582Z,40.60
2022-08-25T15:22:12.879Z,40.70
2022-08-25T15:24:44.527Z,40.60
2022-08-25T15:27:18.949Z,40.50
2022-08-25T15:29:50.611Z,40.30
2022-08-25T15:32:22.445Z,40.20
2022-08-25T15:34:55.713Z,40.00
2022-08-25T15:37:27.540Z,39.80
2022-08-25T15:39:59.705Z,39.70
2022-08-25T15:42:32.318Z,39.60
2022-08-25T15:45:05.229Z,39.40
2022-08-25T15:47:37.285Z,39.30
2022-08-25T15:50:16.805Z,39.10
2022-08-25T15:52:48.752Z,38.90
2022-08-25T15:55:21.298Z,38.70
2022-08-25T15:57:53.362Z,38.60
2022-08-25T16:00:27.697Z,38.50
2022-08-25T16:03:04.017Z,38.50
2022-08-25T16:05:37.928Z,38.30
2022-08-25T16:08:19.360Z,38.30
2022-08-25T16:10:51.567Z,38.20
2022-08-25T16:13:23.547Z,38.00
2022-08-25T16:15:56.227Z,37.90
2022-08-25T16:18:28.134Z,37.80
2022-08-25T16:21:01.423Z,37.70
2022-08-25T16:23:33.297Z,37.60
2022-08-25T16:26:06.670Z,37.50
2022-08-25T16:28:41.126Z,37.40
2022-08-25T16:31:17.220Z,37.40
2022-08-25T16:33:49.090Z,37.20
2022-08-25T16:36:24.544Z,37.10
2022-08-25T16:39:00.926Z,37.10
2022-08-25T16:41:35.887Z,37.00
2022-08-25T16:44:07.807Z,36.90
2022-08-25T16:46:44.217Z,36.70
2022-08-25T16:49:16.331Z,36.70
2022-08-25T16:51:57.858Z,36.50
2022-08-25T16:54:48.241Z,36.40
2022-08-25T16:57:24.773Z,36.40
2022-08-25T16:59:58.641Z,36.30
2022-08-25T17:02:31.400Z,36.10
2022-08-25T17:05:03.859Z,36.00
2022-08-25T17:07:37.084Z,36.00
2022-08-25T17:10:12.753Z,36.00
2022-08-25T17:12:45.593Z,35.90
2022-08-25T17:15:22.326Z,35.80
2022-08-25T17:17:54.167Z,35.70
2022-08-25T17:20:26.116Z,35.70
2022-08-25T17:23:01.133Z,35.70
2022-08-25T17:25:35.334Z,35.60
2022-08-25T17:28:07.714Z,35.50
2022-08-25T17:30:44.559Z,35.40
2022-08-25T17:33:16.821Z,35.50
2022-08-25T17:35:56.923Z,35.40
2022-08-25T17:38:33.350Z,35.40
2022-08-25T17:41:07.913Z,35.30
2022-08-25T17:43:41.318Z,35.30
2022-08-25T17:46:13.810Z,35.20
2022-08-25T17:48:46.341Z,35.10
2022-08-25T17:51:19.030Z,35.10
2022-08-25T17:53:52.803Z,35.00
2022-08-25T17:56:27.291Z,34.70
2022-08-25T17:58:59.311Z,34.50
2022-08-25T18:01:33.928Z,34.20
2022-08-25T18:04:06.247Z,34.00
2022-08-25T18:06:49.500Z,33.70
2022-08-25T18:09:22.829Z,33.50
2022-08-25T18:11:56.666Z,33.20
2022-08-25T18:14:28.607Z,33.00
2022-08-25T18:17:01.574Z,32.80
2022-08-25T18:19:33.392Z,32.60
2022-08-25T18:22:06.173Z,32.50
2022-08-25T18:24:39.726Z,32.30
2022-08-25T18:27:11.740Z,32.20
2022-08-25T18:29:43.572Z,32.30
2022-08-25T18:32:15.358Z,32.40
2022-08-25T18:34:51.446Z,32.50
2022-08-25T18:37:43.272Z,32.60
2022-08-25T18:40:22.820Z,32.70
2022-08-25T18:42:57.510Z,32.70
2022-08-25T18:45:32.181Z,32.80
2022-08-25T18:48:06.095Z,32.90
2022-08-25T18:50:40.692Z,33.00
2022-08-25T18:53:13.173Z,32.90
2022-08-25T18:55:46.449Z,32.80
2022-08-25T18:58:19.374Z,32.50
2022-08-25T19:00:52.017Z,32.30
2022-08-25T19:03:24.763Z,32.10
2022-08-25T19:05:57.389Z,31.80
2022-08-25T19:08:29.486Z,31.60
2022-08-25T19:11:02.643Z,31.30
2022-08-25T19:13:34.440Z,31.00
2022-08-25T19:16:11.664Z,30.80
2022-08-25T19:18:44.041Z,30.60
2022-08-25T19:21:17.244Z,30.40
2022-08-25T19:23:54.480Z,30.20
2022-08-25T19:26:28.014Z,30.20
2022-08-25T19:28:59.901Z,30.30
2022-08-25T19:31:33.050Z,30.30
2022-08-25T19:34:05.791Z,30.40
2022-08-25T19:36:38.872Z,30.60
2022-08-25T19:39:13.114Z,30.70
2022-08-25T19:41:46.866Z,30.80
2022-08-25T19:44:20.440Z,31.00
2022-08-25T19:46:52.560Z,31.10
2022-08-25T19:49:32.024Z,31.20
2022-08-25T19:52:10.346Z,31.30
2022-08-25T19:54:45.743Z,31.30
2022-08-25T19:57:28.434Z,31.30
2022-08-25T20:00:14.982Z,31.40
2022-08-25T20:02:47.454Z,31.30
2022-08-25T20:05:23.450Z,31.40
2022-08-25T20:07:56.561Z,31.40
2022-08-25T20:10:29.745Z,31.40
2022-08-25T20:13:03.518Z,31.30
2022-08-25T20:15:35.581Z,31.30
2022-08-25T20:18:10.972Z,31.30
2022-08-25T20:20:42.904Z,31.30
2022-08-25T20:23:33.673Z,31.30
2022-08-25T20:26:05.496Z,31.30
2022-08-25T20:28:42.024Z,31.20
2022-08-25T20:31:14.404Z,31.00
2022-08-25T20:33:46.238Z,31.00
2022-08-25T20:36:20.662Z,30.90
2022-08-25T20:38:52.581Z,30.90
2022-08-25T20:41:24.456Z,30.90
2022-08-25T20:43:57.535Z,30.80
2022-08-25T20:46:29.257Z,30.80
2022-08-25T20:49:01.555Z,30.60
2022-08-25T20:51:34.827Z,30.60
2022-08-25T20:54:07.255Z,30.60
2022-08-25T20:56:39.082Z,30.50
2022-08-25T20:59:12.400Z,30.40
2022-08-25T21:01:44.185Z,30.40
2022-08-25T21:04:18.878Z,30.30
2022-08-25T21:06:51.915Z,30.30
2022-08-25T21:09:24.633Z,30.20
2022-08-25T21:11:57.611Z,30.10
2022-08-25T21:14:30.882Z,30.00
2022-08-25T21:17:05.081Z,29.90
2022-08-25T21:19:37.061Z,29.80
2022-08-25T21:22:11.873Z,29.80
2022-08-25T21:24:44.918Z,29.70
2022-08-25T21:27:16.897Z,29.80
2022-08-25T21:29:55.008Z,29.70
2022-08-25T21:32:27.307Z,29.80
2022-08-25T21:34:59.354Z,29.70
2022-08-25T21:37:31.177Z,29.70
2022-08-25T21:40:03.602Z,29.70
2022-08-25T21:42:39.110Z,29.70
2022-08-25T21:45:12.689Z,29.70
2022-08-25T21:47:44.957Z,29.60
2022-08-25T21:50:17.148Z,29.60
2022-08-25T21:52:50.093Z,29.60
2022-08-25T21:55:26.740Z,29.50
2022-08-25T21:57:58.600Z,29.50
2022-08-25T22:00:33.908Z,29.40
2022-08-25T22:03:05.971Z,29.40
2022-08-25T22:05:39.336Z,29.40
2022-08-25T22:08:12.465Z,29.30
2022-08-25T22:10:44.815Z,29.20
2022-08-25T22:13:16.724Z,29.20
2022-08-25T22:15:51.902Z,29.20
2022-08-25T22:18:24.102Z,29.00
2022-08-25T22:20:57.783Z,28.80
2022-08-25T22:23:29.650Z,28.50
2022-08-25T22:26:05.217Z,28.20
2022-08-25T22:28:37.085Z,27.90
2022-08-25T22:31:12.252Z,27.60
2022-08-25T22:33:45.139Z,27.20
2022-08-25T22:36:18.407Z,26.90
2022-08-25T22:38:51.326Z,26.70
2022-08-25T22:41:24.544Z,26.40
2022-08-25T22:43:57.991Z,26.10
2022-08-25T22:46:33.570Z,25.90
2022-08-25T22:49:07.550Z,25.70
2022-08-25T22:51:40.292Z,25.50
2022-08-25T22:54:14.869Z,25.30
2022-08-25T22:56:46.705Z,25.20
2022-08-25T22:59:18.576Z,25.00
2022-08-25T23:01:54.720Z,24.90
2022-08-25T23:04:26.712Z,24.80
2022-08-25T23:06:58.563Z,24.60
2022-08-25T23:09:30.401Z,24.50
2022-08-25T23:12:02.446Z,24.40
2022-08-25T23:14:36.107Z,24.30
2022-08-25T23:17:09.245Z,24.20
2022-08-25T23:19:41.029Z,24.10
2022-08-25T23:22:16.139Z,24.00
2022-08-25T23:24:51.956Z,23.90
2022-08-25T23:27:23.824Z,23.90
2022-08-25T23:29:55.608Z,23.80
2022-08-25T23:32:29.731Z,23.70
2022-08-25T23:35:01.655Z,23.60
2022-08-25T23:37:33.989Z,23.60
2022-08-25T23:40:09.933Z,23.50
2022-08-25T23:42:41.800Z,23.40
2022-08-25T23:45:15.413Z,23.30
2022-08-25T23:47:49.712Z,23.20
2022-08-25T23:50:22.141Z,23.20
2022-08-25T23:52:54.218Z,23.10
2022-08-25T23:55:28.619Z,23.00
2022-08-25T23:58:03.056Z,23.00
